VTSH 
Songkhla Airport
Thailand 
ICAOIATAStatus
VTSHSGZOperational
LatitudeLongitude
7° 11' 11" N100° 36' 28" E
7.186560100.608002
Local Time (DST+7)UTC (GMT+7)
04-25-2014 01:43 pm04-25-2014 06:43
Sunrise-SunsetLocalUTC
Begin Civil Twilight05:42 am22:42
Sunrise06:04 am23:04
Sunset06:26 pm11:26
End Civil Twilight06:48 pm11:48

Current Weather

METARObservedFlight Conditions

VTSH 250100Z 00000KT 9999 FEW020 BKN300 28/23 Q1010 A2980

Fri, Apr 25, 2014 @ 01:00 UTC(Z)

(5 Hours, 43 Minutes ago)

VFR

(Visual Flight Rules)

WindVisibilityCloudsConditions
Calm
10 km or more
  • Few at 2,000' AGL
  • Broken at 30,000' AGL
  • No significant weather
TemperaturesReadingsPrecipitation
Current Temp28°C (82°F)
Dewpoint23°C (73°F)
Heat Index31°C (87°F)
Humidity74%
Altimeter29.82"Hg
Sea Level Pressure1010mb
Field Elevation16.4'
None Recorded

Additional weather within a 92.6km radius of VTSH

Location METAR
VTSS

36.9km S (220°)

43 minutes ago
VFR VFR    MVFR MVFR    IFR IFR    LIFR LIFR    Unknown Unknown

Previous 24 hour Weather Graphs

  Loading...

CheckWX.com is intended as a tool to help pilots better visualize weather data.   It is not intended as a substitute for an official weather briefing obtained from a Flight Service Station.
CheckWX.com does not meet the FAA requirements for an official pre-flight weather briefing.   Therefore, it's important that pilots still call and obtain an official FSS pre-flight weather briefing.